Time;durP1;ratioP1;P1;durP2;ratioP2;P2;SDS_P1;SDS_P2;PMS_P1;PMS_P2;Temp;Humidity;BMP_temperature;BMP_pressure;BME280_temperature;BME280_humidity;BME280_pressure;Samples;Min_cycle;Max_cycle;Signal;HPM_P1;HPM_P2
2022/12/24 00:00:59;;;;;;;10.23;9.73;;;;;;;-2.26;100.00;100404.16;5011885;28;20030;-69
2022/12/24 00:03:24;;;;;;;9.88;9.38;;;;;;;-2.38;100.00;100396.28;5010515;28;20069;-68
2022/12/24 00:05:50;;;;;;;9.68;9.25;;;;;;;-2.38;100.00;100399.72;5012068;28;20029;-69
2022/12/24 00:08:15;;;;;;;10.15;9.65;;;;;;;-2.24;100.00;100393.66;5011449;28;20521;-69
2022/12/24 00:10:41;;;;;;;9.82;9.32;;;;;;;-2.36;100.00;100390.06;5009775;28;20033;-69
2022/12/24 00:13:06;;;;;;;9.90;9.40;;;;;;;-2.32;100.00;100401.09;5011235;28;20025;-69
2022/12/24 00:15:32;;;;;;;10.85;10.25;;;;;;;-2.36;100.00;100399.63;5011842;28;20481;-69
2022/12/24 00:17:57;;;;;;;10.15;9.65;;;;;;;-2.40;100.00;100388.59;5012093;28;20022;-69
2022/12/24 00:20:23;;;;;;;9.50;9.10;;;;;;;-2.28;100.00;100398.22;5011559;28;20057;-69
2022/12/24 00:22:49;;;;;;;9.55;9.15;;;;;;;-2.31;100.00;100393.22;5011665;28;20029;-69
2022/12/24 00:25:15;;;;;;;9.82;9.32;;;;;;;-2.28;100.00;100393.03;5011745;28;20026;-69
2022/12/24 00:27:40;;;;;;;9.88;9.38;;;;;;;-2.17;100.00;100383.72;5011818;28;20469;-68
2022/12/24 00:30:06;;;;;;;10.02;9.52;;;;;;;-2.29;100.00;100380.94;5010810;28;20469;-68
2022/12/24 00:32:31;;;;;;;10.52;9.93;;;;;;;-2.18;100.00;100377.69;5008900;28;20106;-68
2022/12/24 00:34:57;;;;;;;9.80;9.32;;;;;;;-2.39;100.00;100374.69;5011927;28;20025;-68
2022/12/24 00:37:22;;;;;;;9.50;9.10;;;;;;;-2.29;100.00;100369.72;5010882;28;20036;-68
2022/12/24 00:39:48;;;;;;;10.05;9.55;;;;;;;-2.35;100.00;100372.72;5011206;28;20680;-68
2022/12/24 00:42:13;;;;;;;10.13;9.63;;;;;;;-2.35;100.00;100363.19;5010495;28;20030;-68
2022/12/24 00:44:39;;;;;;;10.77;10.18;;;;;;;-2.32;100.00;100362.13;5009981;28;20044;-68
2022/12/24 00:47:04;;;;;;;10.68;10.07;;;;;;;-2.37;100.00;100354.63;5010364;28;20034;-69
2022/12/24 00:49:30;;;;;;;9.50;9.10;;;;;;;-2.36;100.00;100366.69;5011233;28;20076;-69
2022/12/24 00:51:55;;;;;;;9.68;9.18;;;;;;;-2.37;100.00;100356.38;5011666;28;20017;-69
2022/12/24 00:54:20;;;;;;;9.85;9.35;;;;;;;-2.38;100.00;100360.75;5011043;28;20048;-70
2022/12/24 00:56:46;;;;;;;9.35;8.95;;;;;;;-2.25;100.00;100361.66;5011593;28;20388;-70
2022/12/24 00:59:11;;;;;;;9.75;9.25;;;;;;;-2.26;100.00;100357.41;5010479;28;20076;-70
2022/12/24 01:01:37;;;;;;;10.38;9.80;;;;;;;-2.42;100.00;100358.44;5011465;28;20038;-70
2022/12/24 01:06:46;;;;;;;10.38;9.88;;;;;;;-2.48;100.00;100364.03;5009728;28;20028;-69
2022/12/24 01:09:12;;;;;;;9.95;9.45;;;;;;;-2.36;100.00;100365.84;5011266;28;20045;-69
2022/12/24 01:11:37;;;;;;;10.05;9.55;;;;;;;-2.40;100.00;100331.44;5009542;28;20432;-69
2022/12/24 01:14:03;;;;;;;10.32;9.82;;;;;;;-2.42;100.00;100363.63;5008983;28;20025;-69
2022/12/24 01:16:28;;;;;;;10.10;9.60;;;;;;;-2.55;100.00;100367.00;5011109;28;20029;-69
2022/12/24 01:18:54;;;;;;;9.85;9.35;;;;;;;-2.43;100.00;100370.59;5010978;28;20493;-68
2022/12/24 01:21:19;;;;;;;9.95;9.45;;;;;;;-2.36;100.00;100364.09;5014072;28;20026;-69
2022/12/24 01:23:45;;;;;;;9.35;8.95;;;;;;;-2.32;100.00;100351.75;5014614;28;20571;-68
2022/12/24 01:26:13;;;;;;;9.68;9.18;;;;;;;-2.27;100.00;100340.16;5014537;28;20026;-69
2022/12/24 01:28:39;;;;;;;10.40;9.80;;;;;;;-2.19;100.00;100352.66;5014480;28;20025;-68
2022/12/24 01:31:16;;;;;;;9.52;9.02;;;;;;;-2.13;100.00;100344.47;5014681;28;20025;-69
2022/12/24 01:33:43;;;;;;;10.32;9.73;;;;;;;-2.16;100.00;100339.44;5014334;28;20056;-69
2022/12/24 01:36:09;;;;;;;9.68;9.18;;;;;;;-2.34;100.00;100340.63;5017232;28;20025;-68
2022/12/24 01:38:35;;;;;;;9.98;9.48;;;;;;;-2.58;100.00;100349.00;5011395;28;20362;-68
2022/12/24 01:43:44;;;;;;;9.88;9.38;;;;;;;-2.42;100.00;100342.84;5014587;28;20084;-69
2022/12/24 01:46:24;;;;;;;9.32;8.93;;;;;;;-2.59;100.00;100349.09;5014472;28;20026;-68
2022/12/24 01:48:56;;;;;;;10.23;9.73;;;;;;;-2.54;100.00;100344.47;5014350;28;20030;-68
2022/12/24 01:51:47;;;;;;;10.15;9.65;;;;;;;-2.63;100.00;100335.50;5014247;28;20101;-68
2022/12/24 01:54:29;;;;;;;9.52;9.02;;;;;;;-2.62;100.00;100337.16;5011234;28;20046;-68
2022/12/24 01:57:05;;;;;;;9.40;9.00;;;;;;;-2.68;100.00;100332.34;5013615;28;20064;-69
2022/12/24 01:59:31;;;;;;;9.43;8.98;;;;;;;-2.70;100.00;100329.00;5011348;28;20022;-69
2022/12/24 02:01:57;;;;;;;9.50;9.10;;;;;;;-2.68;100.00;100329.75;5014382;28;20509;-68
2022/12/24 02:04:25;;;;;;;9.55;9.15;;;;;;;-2.66;100.00;100332.25;5014194;28;20030;-68
2022/12/24 02:06:51;;;;;;;9.70;9.27;;;;;;;-2.66;100.00;100319.25;5014134;28;20129;-68
2022/12/24 02:09:17;;;;;;;9.98;9.48;;;;;;;-2.73;100.00;100315.38;5013183;28;20412;-68
2022/12/24 02:11:43;;;;;;;11.95;11.25;;;;;;;-2.73;100.00;100317.97;5014482;28;20045;-68
2022/12/24 02:14:10;;;;;;;9.88;9.40;;;;;;;-2.72;100.00;100314.44;5013978;28;20413;-70
2022/12/24 02:16:35;;;;;;;10.32;9.82;;;;;;;-2.57;100.00;100322.13;5013545;28;20026;-70
2022/12/24 02:19:45;;;;;;;10.30;9.80;;;;;;;-2.56;100.00;100326.41;5014044;28;20129;-68
2022/12/24 02:22:16;;;;;;;10.07;9.57;;;;;;;-2.70;100.00;100318.63;4999339;28;20437;-69
2022/12/24 02:25:12;;;;;;;9.80;9.40;;;;;;;-2.56;100.00;100316.00;5013755;28;20028;-69
2022/12/24 02:27:47;;;;;;;10.07;9.57;;;;;;;-2.68;100.00;100314.16;5013883;28;21726;-68
2022/12/24 02:30:23;;;;;;;9.57;9.18;;;;;;;-2.73;100.00;100320.56;5013389;28;20504;-68
2022/12/24 02:33:10;;;;;;;9.90;9.40;;;;;;;-2.51;100.00;100308.72;5010784;28;20022;-68
2022/12/24 02:35:44;;;;;;;10.00;9.50;;;;;;;-2.66;100.00;100319.25;5011998;28;20543;-69
2022/12/24 02:38:33;;;;;;;9.20;8.80;;;;;;;-2.52;100.00;100306.25;5013394;28;20073;-69
2022/12/24 02:41:13;;;;;;;9.77;9.27;;;;;;;-2.63;100.00;100301.75;5013245;28;20030;-69
2022/12/24 02:43:44;;;;;;;9.13;8.73;;;;;;;-2.62;100.00;100305.16;5013454;28;20105;-69
2022/12/24 02:46:17;;;;;;;9.38;8.98;;;;;;;-2.45;100.00;100304.94;5011796;28;20564;-68
2022/12/24 02:48:45;;;;;;;9.70;9.20;;;;;;;-2.56;100.00;100310.81;5013310;28;20030;-68
2022/12/24 02:51:11;;;;;;;9.82;9.32;;;;;;;-2.59;100.00;100317.94;5011012;28;20393;-68
2022/12/24 02:53:37;;;;;;;10.07;9.57;;;;;;;-2.61;100.00;100315.44;5012810;28;20780;-68
2022/12/24 02:56:29;;;;;;;10.40;9.80;;;;;;;-2.54;100.00;100326.28;5013077;28;20029;-68
2022/12/24 02:59:13;;;;;;;9.38;8.95;;;;;;;-2.37;100.00;100331.25;5010259;28;20037;-68
2022/12/24 03:01:55;;;;;;;9.23;8.83;;;;;;;-2.41;100.00;100339.34;5013211;28;20084;-69
2022/12/24 03:04:58;;;;;;;9.57;9.07;;;;;;;-2.27;100.00;100336.72;5010778;28;20346;-68
2022/12/24 03:07:45;;;;;;;9.45;8.98;;;;;;;-2.40;100.00;100336.66;5011984;28;20037;-69
2022/12/24 03:10:18;;;;;;;9.38;8.98;;;;;;;-2.31;100.00;100338.66;5012774;28;20113;-69
2022/12/24 03:12:49;;;;;;;9.60;9.10;;;;;;;-2.42;100.00;100332.47;5011316;28;20033;-69
2022/12/24 03:15:17;;;;;;;10.00;9.50;;;;;;;-2.56;100.00;100335.94;5012727;28;20033;-68
2022/12/24 03:17:46;;;;;;;10.20;9.70;;;;;;;-2.76;100.00;100319.00;5011466;28;20029;-68
2022/12/24 03:20:17;;;;;;;9.35;8.95;;;;;;;-2.59;100.00;100328.34;5009943;28;20156;-68
2022/12/24 03:22:43;;;;;;;10.15;9.63;;;;;;;-2.37;100.00;100327.81;5010609;28;20028;-68
2022/12/24 03:25:09;;;;;;;9.40;9.00;;;;;;;-2.41;100.00;100332.38;5012622;28;20401;-68
2022/12/24 03:27:37;;;;;;;9.85;9.35;;;;;;;-2.68;100.00;100332.34;5012394;28;20112;-68
2022/12/24 03:30:07;;;;;;;10.02;9.52;;;;;;;-2.59;100.00;100325.72;5012524;28;20021;-70
2022/12/24 03:32:32;;;;;;;10.10;9.60;;;;;;;-2.39;100.00;100327.91;5010197;28;20052;-68
2022/12/24 03:34:58;;;;;;;9.20;8.80;;;;;;;-2.60;100.00;100329.25;5012372;28;20030;-68
2022/12/24 03:37:24;;;;;;;9.75;9.25;;;;;;;-2.54;100.00;100327.13;5010349;28;20022;-68
2022/12/24 03:39:50;;;;;;;9.93;9.43;;;;;;;-2.43;100.00;100336.81;5012461;28;20418;-69
2022/12/24 03:42:15;;;;;;;9.95;9.45;;;;;;;-2.59;100.00;100329.16;5012613;28;20107;-69
2022/12/24 03:44:41;;;;;;;10.52;9.98;;;;;;;-2.55;100.00;100325.47;5010366;28;20025;-69
2022/12/24 03:47:07;;;;;;;10.32;9.82;;;;;;;-2.61;100.00;100314.63;5011483;28;20155;-69
2022/12/24 03:49:32;;;;;;;10.10;9.60;;;;;;;-2.56;100.00;100316.00;5009816;28;20033;-69
2022/12/24 03:51:57;;;;;;;9.10;8.70;;;;;;;-2.54;100.00;100326.28;5012179;28;20021;-68
2022/12/24 03:54:23;;;;;;;9.95;9.45;;;;;;;-2.70;100.00;100317.78;5011084;28;20044;-68
2022/12/24 03:56:48;;;;;;;9.65;9.18;;;;;;;-2.68;100.00;100323.72;5010193;28;20080;-69
2022/12/24 03:59:14;;;;;;;10.00;9.50;;;;;;;-2.71;100.00;100316.13;5012016;28;20048;-69
2022/12/24 04:01:40;;;;;;;9.80;9.30;;;;;;;-2.50;100.00;100317.34;5011851;28;20061;-68
2022/12/24 04:04:05;;;;;;;9.73;9.23;;;;;;;-2.55;100.00;100307.28;5010719;28;20084;-70
2022/12/24 04:06:31;;;;;;;9.73;9.23;;;;;;;-2.56;100.00;100316.00;5011823;28;20038;-69
2022/12/24 04:08:58;;;;;;;9.45;8.95;;;;;;;-2.52;100.00;100311.44;5012058;28;20220;-69
2022/12/24 04:11:23;;;;;;;9.65;9.15;;;;;;;-2.52;100.00;100307.06;5011547;28;20091;-68
2022/12/24 04:13:49;;;;;;;9.88;9.38;;;;;;;-2.53;100.00;100315.78;5011223;28;20029;-69
2022/12/24 04:16:16;;;;;;;9.30;8.85;;;;;;;-2.88;100.00;100304.19;5011420;28;20022;-68
2022/12/24 04:18:43;;;;;;;9.68;9.18;;;;;;;-2.72;100.00;100317.03;5011236;28;20036;-69
2022/12/24 04:21:09;;;;;;;9.43;9.02;;;;;;;-2.96;100.00;100321.97;5011744;28;20028;-69
2022/12/24 04:23:36;;;;;;;10.65;10.07;;;;;;;-2.98;100.00;100322.06;5011856;28;20149;-69
2022/12/24 04:26:04;;;;;;;9.77;9.27;;;;;;;-2.78;100.00;100318.28;5011999;28;20029;-69
2022/12/24 04:28:31;;;;;;;10.18;9.68;;;;;;;-2.62;100.00;100318.97;5011066;28;20030;-69
2022/12/24 04:31:09;;;;;;;9.90;9.40;;;;;;;-2.55;100.00;100327.22;5011780;28;20080;-69
2022/12/24 04:33:36;;;;;;;10.10;9.60;;;;;;;-2.77;100.00;100332.91;5010378;28;20030;-69
2022/12/24 04:36:03;;;;;;;10.07;9.57;;;;;;;-3.03;100.00;100321.50;5010557;28;20124;-68
2022/12/24 04:38:29;;;;;;;10.50;9.93;;;;;;;-3.04;100.00;100324.22;5011837;28;20022;-68
2022/12/24 04:41:01;;;;;;;10.10;9.60;;;;;;;-2.96;100.00;100320.22;5012077;28;20048;-68
2022/12/24 04:43:28;;;;;;;10.20;9.70;;;;;;;-3.14;100.00;100329.13;5011464;28;20153;-68
2022/12/24 04:45:54;;;;;;;10.10;9.60;;;;;;;-3.30;100.00;100330.97;5010949;28;20366;-68
2022/12/24 04:48:20;;;;;;;10.43;9.90;;;;;;;-3.29;100.00;100315.31;5011458;28;20026;-68
2022/12/24 04:50:45;;;;;;;9.75;9.35;;;;;;;-3.20;100.00;100327.72;5011764;28;20028;-68
2022/12/24 04:53:13;;;;;;;10.10;9.60;;;;;;;-3.35;100.00;100331.25;5011259;28;20397;-68
2022/12/24 04:55:43;;;;;;;10.32;9.82;;;;;;;-3.63;100.00;100316.47;5012759;28;20042;-69
2022/12/24 04:58:09;;;;;;;10.85;10.27;;;;;;;-3.64;100.00;100317.41;5014410;28;20458;-69
2022/12/24 05:00:34;;;;;;;10.88;10.27;;;;;;;-3.66;100.00;100327.84;5015411;28;20029;-68
2022/12/24 05:03:00;;;;;;;10.38;9.88;;;;;;;-3.38;100.00;100326.22;5014445;28;20370;-68
2022/12/24 05:05:25;;;;;;;10.18;9.68;;;;;;;-3.45;100.00;100319.72;5013820;28;20055;-68
2022/12/24 05:07:51;;;;;;;9.85;9.40;;;;;;;-3.61;100.00;100319.78;5015256;28;20434;-69
2022/12/24 05:10:16;;;;;;;10.00;9.50;;;;;;;-3.48;100.00;100325.09;5015073;28;20091;-69
2022/12/24 05:12:42;;;;;;;10.30;9.80;;;;;;;-3.59;100.00;100317.13;5015161;28;20032;-69
2022/12/24 05:15:07;;;;;;;10.23;9.73;;;;;;;-3.51;100.00;100314.94;5012483;28;20066;-69
2022/12/24 05:17:33;;;;;;;10.23;9.73;;;;;;;-4.02;100.00;100325.63;5013659;28;20033;-69
2022/12/24 05:19:58;;;;;;;10.10;9.60;;;;;;;-3.81;100.00;100323.56;5013984;28;20481;-69
2022/12/24 05:27:53;;;;;;;10.20;9.70;;;;;;;-4.11;100.00;100320.09;5012594;28;20054;-69
2022/12/24 05:30:19;;;;;;;10.98;10.38;;;;;;;-4.06;100.00;100316.34;5014707;28;20477;-69
2022/12/24 05:32:44;;;;;;;10.45;9.95;;;;;;;-3.90;100.00;100317.13;5014616;28;20057;-69
2022/12/24 05:35:10;;;;;;;10.40;9.90;;;;;;;-4.08;100.00;100310.41;5013940;28;20034;-69
2022/12/24 05:37:35;;;;;;;11.20;10.60;;;;;;;-4.22;100.00;100311.19;5014496;28;20053;-70
2022/12/24 05:40:00;;;;;;;10.82;10.32;;;;;;;-4.09;100.00;100319.13;5014663;28;20029;-68
2022/12/24 05:42:26;;;;;;;10.65;10.15;;;;;;;-4.15;100.00;100323.81;5012604;28;20136;-69
2022/12/24 05:44:51;;;;;;;11.07;10.50;;;;;;;-4.09;100.00;100323.47;5014343;28;20026;-69
2022/12/24 05:47:17;;;;;;;10.40;9.90;;;;;;;-3.90;100.00;100316.28;5014480;28;20021;-69
2022/12/24 05:49:42;;;;;;;10.93;10.32;;;;;;;-4.03;100.00;100312.75;5013037;28;20100;-69
2022/12/24 05:52:08;;;;;;;10.25;9.75;;;;;;;-3.87;100.00;100317.91;5013157;28;20030;-69
2022/12/24 05:54:33;;;;;;;10.52;10.02;;;;;;;-3.63;100.00;100312.13;5012099;28;20406;-68
2022/12/24 05:56:58;;;;;;;11.63;10.93;;;;;;;-3.42;100.00;100325.59;5014178;28;20069;-69
2022/12/24 05:59:24;;;;;;;10.07;9.57;;;;;;;-3.42;100.00;100323.00;5013978;28;20030;-69
2022/12/24 06:01:49;;;;;;;10.10;9.60;;;;;;;-3.64;100.00;100313.03;5014421;28;20038;-69
2022/12/24 06:04:15;;;;;;;10.48;9.98;;;;;;;-3.42;100.00;100322.16;5013924;28;20029;-69
2022/12/24 06:06:40;;;;;;;10.10;9.60;;;;;;;-3.68;100.00;100293.41;5013204;28;20097;-69
2022/12/24 06:09:06;;;;;;;10.30;9.80;;;;;;;-3.77;100.00;100314.69;5010981;28;20512;-69
2022/12/24 06:11:31;;;;;;;10.40;9.88;;;;;;;-3.86;100.00;100304.84;5013729;28;20068;-69
2022/12/24 06:13:57;;;;;;;10.43;9.88;;;;;;;-3.36;100.00;100308.84;5014094;28;20041;-69
2022/12/24 06:16:24;;;;;;;10.05;9.55;;;;;;;-3.28;100.00;100305.78;5012551;28;20026;-69
2022/12/24 06:18:49;;;;;;;10.90;10.30;;;;;;;-2.66;100.00;100317.50;5013818;28;20108;-69
2022/12/24 06:21:15;;;;;;;9.25;8.82;;;;;;;-3.24;100.00;100309.84;5011919;28;20080;-69
2022/12/24 06:23:42;;;;;;;9.10;8.65;;;;;;;-2.90;100.00;100319.00;5011901;28;20029;-69
2022/12/24 06:26:10;;;;;;;8.75;8.35;;;;;;;-3.06;100.00;100317.34;5013021;28;20034;-68
2022/12/24 06:28:37;;;;;;;9.38;8.88;;;;;;;-3.22;100.00;100310.59;5013592;28;20022;-70
2022/12/24 06:31:04;;;;;;;9.30;8.82;;;;;;;-2.98;100.00;100321.25;5013647;28;20473;-69
2022/12/24 06:33:30;;;;;;;9.00;8.60;;;;;;;-2.42;100.00;100330.72;5013339;28;20034;-70
2022/12/24 06:35:56;;;;;;;8.85;8.45;;;;;;;-1.38;100.00;100316.13;5013730;28;20488;-70
2022/12/24 06:38:21;;;;;;;8.95;8.55;;;;;;;-1.41;100.00;100317.13;5013616;28;20030;-70
2022/12/24 06:40:47;;;;;;;9.27;8.77;;;;;;;-0.97;100.00;100307.22;5013309;28;20056;-69
2022/12/24 06:43:13;;;;;;;9.48;8.98;;;;;;;-0.79;100.00;100302.53;5011155;28;20023;-69
2022/12/24 06:45:43;;;;;;;9.85;9.35;;;;;;;-2.36;100.00;100300.91;5011099;28;20037;-70
2022/12/24 06:48:08;;;;;;;9.77;9.27;;;;;;;-2.91;100.00;100301.78;5013268;28;20029;-69
2022/12/24 06:50:34;;;;;;;10.30;9.80;;;;;;;-2.51;100.00;100295.75;5012759;28;20025;-68
2022/12/24 06:52:59;;;;;;;11.05;10.45;;;;;;;-0.90;100.00;100283.25;5012983;28;20025;-68
2022/12/24 06:55:25;;;;;;;9.90;9.40;;;;;;;2.35;100.00;100306.22;5012749;28;20041;-68
2022/12/24 06:57:50;;;;;;;8.68;8.27;;;;;;;1.06;100.00;100297.47;5011578;28;20025;-69
2022/12/24 07:00:16;;;;;;;9.20;8.70;;;;;;;2.01;100.00;100289.88;5011879;28;20084;-69
2022/12/24 07:02:43;;;;;;;9.48;8.98;;;;;;;3.83;100.00;100291.66;5012690;28;20030;-69
2022/12/24 07:05:11;;;;;;;8.40;8.00;;;;;;;1.20;100.00;100283.31;5012450;28;20025;-70
2022/12/24 07:07:37;;;;;;;8.60;8.20;;;;;;;0.85;100.00;100280.84;5012822;28;20081;-68
2022/12/24 07:10:03;;;;;;;8.40;8.00;;;;;;;1.84;100.00;100273.78;5012878;28;20024;-69
2022/12/24 07:12:29;;;;;;;8.68;8.27;;;;;;;2.26;100.00;100281.66;5012653;28;20030;-68
2022/12/24 07:14:54;;;;;;;9.00;8.60;;;;;;;2.75;100.00;100269.69;5011419;28;20150;-70
2022/12/24 07:17:20;;;;;;;8.93;8.52;;;;;;;5.93;100.00;100277.22;5010175;28;20026;-69
2022/12/24 07:19:45;;;;;;;8.57;8.18;;;;;;;4.15;100.00;100280.88;5011168;28;20536;-70
2022/12/24 07:22:11;;;;;;;9.00;8.60;;;;;;;3.08;100.00;100279.03;5012800;28;20026;-70
2022/12/24 07:24:36;;;;;;;9.40;9.00;;;;;;;2.98;100.00;100279.00;5012456;28;20048;-70
2022/12/24 07:27:02;;;;;;;9.35;8.95;;;;;;;2.56;100.00;100272.19;5012395;28;20032;-70
2022/12/24 07:29:27;;;;;;;10.35;9.85;;;;;;;3.37;100.00;100268.63;5012350;28;20058;-70
2022/12/24 07:31:53;;;;;;;9.40;9.00;;;;;;;6.41;100.00;100275.97;5012293;28;20037;-70
2022/12/24 07:34:18;;;;;;;9.48;9.07;;;;;;;4.46;100.00;100270.16;5010218;28;20022;-69
2022/12/24 07:36:43;;;;;;;9.50;9.10;;;;;;;3.03;100.00;100265.53;5011840;28;20474;-69
2022/12/24 07:39:09;;;;;;;9.02;8.63;;;;;;;3.49;100.00;100259.69;5012404;28;20382;-69
2022/12/24 07:41:34;;;;;;;9.43;9.02;;;;;;;7.18;100.00;100267.16;5011716;28;20104;-70
2022/12/24 07:44:00;;;;;;;9.40;9.00;;;;;;;3.14;100.00;100261.97;5012182;28;20029;-70
2022/12/24 07:46:25;;;;;;;9.48;9.07;;;;;;;4.75;100.00;100269.28;5012075;28;20018;-70
2022/12/24 07:48:51;;;;;;;9.30;8.90;;;;;;;4.68;100.00;100258.50;5011055;28;20045;-70
2022/12/24 07:51:16;;;;;;;9.57;9.18;;;;;;;6.37;100.00;100255.19;5011219;28;20017;-69
2022/12/24 07:53:46;;;;;;;10.10;9.60;;;;;;;8.70;100.00;100272.94;5011592;28;20111;-70
2022/12/24 07:56:14;;;;;;;9.45;9.05;;;;;;;7.78;100.00;100269.63;5011632;28;20026;-69
2022/12/24 07:58:40;;;;;;;9.88;9.38;;;;;;;5.82;100.00;100265.91;5011703;28;20532;-69
2022/12/24 08:01:05;;;;;;;9.40;9.00;;;;;;;4.38;100.00;100263.00;5010475;28;20109;-69
2022/12/24 08:03:31;;;;;;;9.65;9.25;;;;;;;3.52;100.00;100269.91;5011908;28;20516;-69
2022/12/24 08:05:57;;;;;;;10.10;9.60;;;;;;;4.61;100.00;100270.56;5011999;28;20034;-70
2022/12/24 08:08:23;;;;;;;9.88;9.48;;;;;;;5.17;100.00;100267.84;5011483;28;20030;-69
2022/12/24 08:10:48;;;;;;;10.00;9.52;;;;;;;7.73;100.00;100254.28;5012369;28;20021;-69
2022/12/24 08:13:14;;;;;;;9.80;9.40;;;;;;;9.24;100.00;100257.22;5011696;28;20022;-70
2022/12/24 08:15:40;;;;;;;10.00;9.50;;;;;;;9.94;100.00;100242.06;5009744;28;20072;-70
2022/12/24 08:18:05;;;;;;;9.77;9.38;;;;;;;10.57;100.00;100247.16;5011629;28;20029;-70
2022/12/24 08:20:31;;;;;;;10.13;9.63;;;;;;;5.90;100.00;100240.66;5011379;28;20026;-69
2022/12/24 08:22:56;;;;;;;9.73;9.32;;;;;;;8.97;100.00;100246.09;5011902;28;20109;-69
2022/12/24 08:25:22;;;;;;;9.80;9.40;;;;;;;4.52;100.00;100230.22;5011201;28;20547;-69
2022/12/24 08:27:47;;;;;;;10.40;9.90;;;;;;;5.25;100.00;100219.78;5008941;28;20113;-70
2022/12/24 08:30:13;;;;;;;10.30;9.80;;;;;;;5.12;100.00;100224.56;5011396;28;20030;-69
2022/12/24 08:32:39;;;;;;;10.32;9.82;;;;;;;6.18;100.00;100222.97;5014079;28;20079;-69
2022/12/24 08:35:05;;;;;;;10.10;9.60;;;;;;;4.60;100.00;100218.97;5015816;28;20036;-69
2022/12/24 08:37:31;;;;;;;10.38;9.88;;;;;;;6.60;100.00;100225.69;5014059;28;20034;-69
2022/12/24 08:39:57;;;;;;;9.60;9.20;;;;;;;2.81;100.00;100219.38;5015698;28;20351;-70
2022/12/24 08:42:22;;;;;;;10.18;9.68;;;;;;;2.88;100.00;100211.84;5014942;28;20033;-70
2022/12/24 08:44:48;;;;;;;9.95;9.52;;;;;;;3.60;100.00;100201.91;5013621;28;20022;-69
2022/12/24 08:47:13;;;;;;;10.50;10.00;;;;;;;2.15;100.00;100203.22;5015406;28;20497;-70
2022/12/24 08:49:39;;;;;;;11.52;10.93;;;;;;;2.57;100.00;100200.53;5015327;28;20037;-69
2022/12/24 08:52:04;;;;;;;10.93;10.43;;;;;;;2.28;100.00;100203.00;5015022;28;20032;-69
2022/12/24 08:54:30;;;;;;;10.05;9.55;;;;;;;3.93;100.00;100207.66;5014951;28;20060;-68
2022/12/24 08:56:55;;;;;;;10.38;9.88;;;;;;;2.67;100.00;100206.66;5015320;28;20440;-69
2022/12/24 08:59:21;;;;;;;9.93;9.43;;;;;;;1.85;100.00;100204.81;5011813;28;20026;-69
2022/12/24 09:01:46;;;;;;;9.45;9.05;;;;;;;3.16;100.00;100203.22;5014930;28;20046;-69
2022/12/24 09:04:12;;;;;;;9.98;9.48;;;;;;;2.03;100.00;100205.06;5015058;28;20075;-70
2022/12/24 09:06:37;;;;;;;10.50;10.00;;;;;;;2.25;100.00;100198.88;5014989;28;20049;-68
2022/12/24 09:09:04;;;;;;;10.73;10.20;;;;;;;2.74;100.00;100208.63;5014887;28;20119;-69
2022/12/24 09:11:30;;;;;;;9.95;9.45;;;;;;;0.74;100.00;100201.56;5014944;28;20018;-70
2022/12/24 09:13:56;;;;;;;10.43;9.93;;;;;;;1.03;100.00;100188.84;5015120;28;20080;-70
2022/12/24 09:16:21;;;;;;;10.18;9.68;;;;;;;3.33;100.00;100201.72;5014179;28;20033;-69
2022/12/24 09:18:47;;;;;;;10.15;9.65;;;;;;;2.69;100.00;100195.06;5014790;28;20037;-70
2022/12/24 09:21:14;;;;;;;9.73;9.23;;;;;;;5.54;100.00;100201.16;5014710;28;20065;-70
2022/12/24 09:23:42;;;;;;;9.30;8.90;;;;;;;2.71;100.00;100190.53;5014678;28;20018;-69
2022/12/24 09:26:11;;;;;;;9.48;9.00;;;;;;;1.70;100.00;100184.34;5014256;28;20026;-69
2022/12/24 09:28:36;;;;;;;9.18;8.77;;;;;;;0.86;100.00;100183.25;5014801;28;20104;-69
2022/12/24 09:31:03;;;;;;;9.30;8.90;;;;;;;1.55;100.00;100191.66;5014369;28;20097;-70
2022/12/24 09:33:31;;;;;;;10.13;9.63;;;;;;;1.97;100.00;100195.09;5013162;28;20080;-70
2022/12/24 09:35:57;;;;;;;10.38;9.88;;;;;;;1.66;100.00;100181.13;5014490;28;20062;-70
2022/12/24 09:38:23;;;;;;;9.35;8.95;;;;;;;1.25;100.00;100174.03;5014377;28;20022;-70
2022/12/24 09:40:49;;;;;;;9.82;9.35;;;;;;;1.50;100.00;100192.00;5012087;28;20397;-70
2022/12/24 09:43:19;;;;;;;10.10;9.60;;;;;;;1.11;100.00;100198.66;5013991;28;20022;-69
2022/12/24 09:46:07;;;;;;;10.05;9.55;;;;;;;0.51;100.00;100197.28;5014517;28;20084;-69
2022/12/24 09:48:37;;;;;;;10.75;10.18;;;;;;;1.12;100.00;100194.28;5014228;28;20025;-69
2022/12/24 09:51:08;;;;;;;9.90;9.40;;;;;;;0.58;100.00;100198.47;5013600;28;20072;-69
2022/12/24 09:53:52;;;;;;;10.50;10.00;;;;;;;0.59;100.00;100188.84;5013529;28;20394;-69
2022/12/24 09:56:29;;;;;;;9.93;9.43;;;;;;;0.75;100.00;100186.72;5012874;28;20067;-70
2022/12/24 09:59:00;;;;;;;10.50;9.98;;;;;;;0.80;100.00;100190.63;5012725;28;20034;-70
2022/12/24 10:01:30;;;;;;;10.10;9.60;;;;;;;0.55;100.00;100189.09;5013991;28;20018;-70
2022/12/24 10:03:59;;;;;;;10.30;9.77;;;;;;;0.49;100.00;100186.13;5014032;28;20026;-70
2022/12/24 10:06:53;;;;;;;9.90;9.40;;;;;;;0.55;100.00;100196.09;5014031;28;20038;-70
2022/12/24 10:09:58;;;;;;;9.82;9.32;;;;;;;0.90;100.00;100188.13;4985821;28;20072;-70
2022/12/24 10:12:40;;;;;;;9.70;9.20;;;;;;;0.40;100.00;100192.06;4962895;28;20496;-69
2022/12/24 10:15:32;;;;;;;9.45;9.05;;;;;;;0.52;100.00;100194.56;5011458;28;20029;-69
2022/12/24 10:18:15;;;;;;;9.20;8.80;;;;;;;-0.01;100.00;100190.81;5010132;28;20045;-70
2022/12/24 10:20:46;;;;;;;9.52;9.02;;;;;;;-0.09;100.00;100195.78;5013304;28;20029;-70
2022/12/24 10:23:33;;;;;;;11.43;10.73;;;;;;;-0.01;100.00;100193.41;5012188;28;20037;-70
2022/12/24 10:26:26;;;;;;;9.80;9.30;;;;;;;-0.50;100.00;100171.03;5012846;28;20030;-68
2022/12/24 10:28:58;;;;;;;10.10;9.60;;;;;;;0.14;100.00;100187.03;5011665;28;20547;-69
2022/12/24 10:31:37;;;;;;;10.13;9.63;;;;;;;0.54;100.00;100190.06;5012449;28;20384;-70
2022/12/24 10:34:22;;;;;;;10.13;9.63;;;;;;;-0.11;100.00;100200.28;5013350;28;20361;-70
2022/12/24 10:36:47;;;;;;;9.65;9.15;;;;;;;0.09;100.00;100194.41;5012205;28;20041;-69
2022/12/24 10:39:22;;;;;;;10.15;9.65;;;;;;;0.37;100.00;100194.91;5011971;28;20037;-70
2022/12/24 10:41:51;;;;;;;9.55;9.05;;;;;;;0.74;100.00;100201.56;5011141;28;20580;-70
2022/12/24 10:44:20;;;;;;;10.10;9.60;;;;;;;0.88;100.00;100203.06;5013324;28;20041;-70
2022/12/24 10:46:46;;;;;;;9.07;8.68;;;;;;;0.19;100.00;100204.97;5013229;28;20030;-70
2022/12/24 10:49:33;;;;;;;10.52;9.93;;;;;;;1.27;100.00;100206.09;5013163;28;20141;-70
2022/12/24 10:52:11;;;;;;;9.43;8.93;;;;;;;1.47;100.00;100210.56;5011796;28;20030;-69
2022/12/24 10:55:14;;;;;;;9.77;9.27;;;;;;;0.91;100.00;100208.06;5012724;28;20042;-70
2022/12/24 10:57:41;;;;;;;9.15;8.75;;;;;;;0.71;100.00;100214.03;5012830;28;20180;-69
2022/12/24 11:00:18;;;;;;;9.13;8.73;;;;;;;1.11;100.00;100209.13;5012157;28;20087;-69
2022/12/24 11:02:46;;;;;;;9.55;9.05;;;;;;;1.04;100.00;100202.72;5011585;28;20547;-70
2022/12/24 11:05:31;;;;;;;9.60;9.10;;;;;;;0.77;100.00;100201.31;5011104;28;20033;-69
2022/12/24 11:08:13;;;;;;;;;;;;;;;1.56;100.00;100204.59;5013377;28;20026;-70
2022/12/24 11:10:52;;;;;;;9.48;8.98;;;;;;;0.76;100.00;100206.66;5026757;28;19913;-69
2022/12/24 11:13:53;;;;;;;9.48;8.98;;;;;;;1.24;100.00;100203.72;5010912;28;20030;-69
2022/12/24 11:16:31;;;;;;;9.38;8.88;;;;;;;1.44;100.00;100199.50;4998842;28;20458;-70
2022/12/24 11:19:00;;;;;;;9.25;8.82;;;;;;;1.48;100.00;100191.31;5009610;28;20026;-69
2022/12/24 11:21:29;;;;;;;10.20;9.70;;;;;;;1.52;100.00;100190.09;5012430;28;20108;-70
2022/12/24 11:23:58;;;;;;;9.80;9.30;;;;;;;1.75;100.00;100195.22;5012646;28;20022;-70
2022/12/24 11:26:28;;;;;;;10.00;9.50;;;;;;;1.19;100.00;100193.66;5008287;28;20033;-69
2022/12/24 11:29:25;;;;;;;9.65;9.15;;;;;;;1.21;100.00;100191.75;5010274;28;20026;-69
2022/12/24 11:31:51;;;;;;;10.15;9.65;;;;;;;1.54;100.00;100196.06;5010105;28;20029;-69
2022/12/24 11:34:31;;;;;;;9.95;9.45;;;;;;;0.88;100.00;100183.97;5011715;28;20033;-71
2022/12/24 11:37:15;;;;;;;10.52;9.93;;;;;;;1.51;100.00;100188.44;5011250;28;20026;-69